createdAt,value
2019-03-21T00:01:01.404Z,99.90
2019-03-21T00:03:29.850Z,99.90
2019-03-21T00:05:58.359Z,99.90
2019-03-21T00:08:26.954Z,99.90
2019-03-21T00:11:30.384Z,99.90
2019-03-21T00:14:06.975Z,99.90
2019-03-21T00:16:32.046Z,99.90
2019-03-21T00:19:01.114Z,99.90
2019-03-21T00:21:29.542Z,99.90
2019-03-21T00:23:58.155Z,99.90
2019-03-21T00:26:26.681Z,99.90
2019-03-21T00:28:55.114Z,99.90
2019-03-21T00:31:23.869Z,99.90
2019-03-21T00:33:52.485Z,99.90
2019-03-21T00:36:20.987Z,99.90
2019-03-21T00:38:49.434Z,99.90
2019-03-21T00:41:18.050Z,99.90
2019-03-21T00:43:46.481Z,99.90
2019-03-21T00:46:14.907Z,99.90
2019-03-21T00:48:43.502Z,99.90
2019-03-21T00:51:11.940Z,99.90
2019-03-21T00:53:40.364Z,99.90
2019-03-21T00:56:08.959Z,99.90
2019-03-21T00:58:37.434Z,99.90
2019-03-21T01:01:08.740Z,99.90
2019-03-21T01:03:38.334Z,99.90
2019-03-21T01:06:06.766Z,99.90
2019-03-21T01:08:35.534Z,99.90
2019-03-21T01:11:04.090Z,99.90
2019-03-21T01:13:40.310Z,99.90
2019-03-21T01:16:08.823Z,99.90
2019-03-21T01:18:40.331Z,99.90
2019-03-21T01:21:08.763Z,99.90
2019-03-21T01:23:37.234Z,99.90
2019-03-21T01:26:10.407Z,99.90
2019-03-21T01:28:38.949Z,99.90
2019-03-21T01:31:07.659Z,99.90
2019-03-21T01:33:36.089Z,99.90
2019-03-21T01:36:06.461Z,99.90
2019-03-21T01:38:34.995Z,99.90
2019-03-21T01:41:06.170Z,99.90
2019-03-21T01:43:34.677Z,99.90
2019-03-21T01:46:05.864Z,99.90
2019-03-21T01:48:34.290Z,99.90
2019-03-21T01:51:02.740Z,99.90
2019-03-21T01:53:31.458Z,99.90
2019-03-21T01:55:59.888Z,99.90
2019-03-21T01:58:28.322Z,99.90
2019-03-21T02:00:57.525Z,99.90
2019-03-21T02:03:25.962Z,99.90
2019-03-21T02:05:54.392Z,99.90
2019-03-21T02:08:23.330Z,99.90
2019-03-21T02:10:52.811Z,99.90
2019-03-21T02:13:21.262Z,99.90
2019-03-21T02:15:50.870Z,99.90
2019-03-21T02:18:20.096Z,99.90
2019-03-21T02:20:48.518Z,99.90
2019-03-21T02:23:16.998Z,99.90
2019-03-21T02:25:46.071Z,99.90
2019-03-21T02:28:14.521Z,99.90
2019-03-21T02:30:50.617Z,99.90
2019-03-21T02:33:28.053Z,99.90
2019-03-21T02:35:56.543Z,99.90
2019-03-21T02:38:24.969Z,99.90
2019-03-21T02:40:56.310Z,99.90
2019-03-21T02:43:24.768Z,99.90
2019-03-21T02:45:53.203Z,99.90
2019-03-21T02:48:21.723Z,99.90
2019-03-21T02:50:50.282Z,99.90
2019-03-21T02:53:18.763Z,99.90
2019-03-21T02:55:47.207Z,99.90
2019-03-21T02:58:15.808Z,99.90
2019-03-21T03:00:45.695Z,99.90
2019-03-21T03:03:14.566Z,99.90
2019-03-21T03:05:43.043Z,99.90
2019-03-21T03:08:11.842Z,99.90
2019-03-21T03:10:49.071Z,99.90
2019-03-21T03:15:49.386Z,99.90
2019-03-21T03:18:21.964Z,99.90
2019-03-21T03:20:50.458Z,99.90
2019-03-21T03:23:18.980Z,99.90
2019-03-21T03:25:50.592Z,99.90
2019-03-21T03:28:23.399Z,99.90
2019-03-21T03:30:54.652Z,99.90
2019-03-21T03:33:23.126Z,99.90
2019-03-21T03:35:51.697Z,99.90
2019-03-21T03:38:20.132Z,99.90
2019-03-21T03:41:12.155Z,99.90
2019-03-21T03:43:40.672Z,99.90
2019-03-21T03:46:09.107Z,99.90
2019-03-21T03:48:37.907Z,99.90
2019-03-21T03:51:06.343Z,99.90
2019-03-21T03:53:34.775Z,99.90
2019-03-21T03:56:03.676Z,99.90
2019-03-21T03:58:34.919Z,99.90
2019-03-21T04:01:03.594Z,99.90
2019-03-21T04:03:32.116Z,99.90
2019-03-21T04:06:00.679Z,99.90
2019-03-21T04:08:29.238Z,99.90
2019-03-21T04:10:58.669Z,99.90
2019-03-21T04:13:28.837Z,99.90
2019-03-21T04:15:57.345Z,99.90
2019-03-21T04:18:26.200Z,99.90
2019-03-21T04:20:57.705Z,99.90
2019-03-21T04:23:26.137Z,99.90
2019-03-21T04:26:03.599Z,99.90
2019-03-21T04:28:32.171Z,99.90
2019-03-21T04:31:00.626Z,99.90
2019-03-21T04:33:29.267Z,99.90
2019-03-21T04:35:57.708Z,99.90
2019-03-21T04:38:26.157Z,99.90
2019-03-21T04:40:54.691Z,99.90
2019-03-21T04:43:23.394Z,99.90
2019-03-21T04:46:02.629Z,99.90
2019-03-21T04:48:22.034Z,99.90
2019-03-21T04:50:50.477Z,99.90
2019-03-21T04:53:18.907Z,99.90
2019-03-21T04:55:47.370Z,99.90
2019-03-21T04:58:15.811Z,99.90
2019-03-21T05:00:55.702Z,99.90
2019-03-21T05:03:26.446Z,99.90
2019-03-21T05:05:54.886Z,99.90
2019-03-21T05:08:23.414Z,99.90
2019-03-21T05:10:51.861Z,99.90
2019-03-21T05:13:20.296Z,99.90
2019-03-21T05:15:50.474Z,99.90
2019-03-21T05:18:31.860Z,99.90
2019-03-21T05:21:01.864Z,99.90
2019-03-21T05:23:30.321Z,99.90
2019-03-21T05:25:58.750Z,99.90
2019-03-21T05:28:27.318Z,99.90
2019-03-21T05:30:58.894Z,99.90
2019-03-21T05:33:27.345Z,99.90
2019-03-21T05:35:55.806Z,99.90
2019-03-21T05:38:26.978Z,99.90
2019-03-21T05:40:55.410Z,99.90
2019-03-21T05:43:27.084Z,99.90
2019-03-21T05:45:55.522Z,99.90
2019-03-21T05:48:23.954Z,99.90
2019-03-21T05:50:52.511Z,99.90
2019-03-21T05:53:20.943Z,99.90
2019-03-21T05:55:49.383Z,99.90
2019-03-21T05:58:18.137Z,99.90
2019-03-21T06:00:56.147Z,99.90
2019-03-21T06:03:31.083Z,99.90
2019-03-21T06:06:11.298Z,99.90
2019-03-21T06:08:41.362Z,99.90
2019-03-21T06:11:10.148Z,99.90
2019-03-21T06:13:38.579Z,99.90
2019-03-21T06:16:06.319Z,99.90
2019-03-21T06:18:46.634Z,99.90
2019-03-21T06:21:29.731Z,99.90
2019-03-21T06:24:18.042Z,99.90
2019-03-21T06:26:52.130Z,99.90
2019-03-21T06:29:20.566Z,99.90
2019-03-21T06:31:49.078Z,99.90
2019-03-21T06:34:17.624Z,99.90
2019-03-21T06:36:46.068Z,99.90
2019-03-21T06:39:14.510Z,99.90
2019-03-21T06:41:43.258Z,99.90
2019-03-21T06:44:11.710Z,99.90
2019-03-21T06:46:48.878Z,99.90
2019-03-21T06:49:10.419Z,99.90
2019-03-21T06:51:38.859Z,99.90
2019-03-21T06:54:07.547Z,99.90
2019-03-21T06:56:36.010Z,99.90
2019-03-21T06:59:04.610Z,99.90
2019-03-21T07:01:33.050Z,99.90
2019-03-21T07:04:06.910Z,99.90
2019-03-21T07:06:31.709Z,99.90
2019-03-21T07:09:00.140Z,99.90
2019-03-21T07:11:28.674Z,99.90
2019-03-21T07:13:57.119Z,99.90
2019-03-21T07:16:25.830Z,99.90
2019-03-21T07:18:54.380Z,99.90
2019-03-21T07:21:22.822Z,99.90
2019-03-21T07:23:51.242Z,99.90
2019-03-21T07:26:19.706Z,99.90
2019-03-21T07:28:48.231Z,99.90
2019-03-21T07:31:16.662Z,99.90
2019-03-21T07:33:45.131Z,99.90
2019-03-21T07:36:13.567Z,99.90
2019-03-21T07:38:42.011Z,99.90
2019-03-21T07:41:10.493Z,99.90
2019-03-21T07:43:38.933Z,99.90
2019-03-21T07:46:07.373Z,99.90
2019-03-21T07:48:35.856Z,99.90
2019-03-21T07:51:04.467Z,99.90
2019-03-21T07:53:32.989Z,99.90
2019-03-21T07:56:01.474Z,99.90
2019-03-21T07:58:29.932Z,99.90
2019-03-21T08:00:58.370Z,99.90
2019-03-21T08:03:26.855Z,99.90
2019-03-21T08:05:55.279Z,99.90
2019-03-21T08:08:23.727Z,99.90
2019-03-21T08:10:52.214Z,99.90
2019-03-21T08:13:20.645Z,99.90
2019-03-21T08:15:49.089Z,99.90
2019-03-21T08:18:17.877Z,99.90
2019-03-21T08:20:56.215Z,99.90
2019-03-21T08:23:16.626Z,99.90
2019-03-21T08:25:45.228Z,99.90
2019-03-21T08:28:13.707Z,99.90
2019-03-21T08:31:06.199Z,99.90
2019-03-21T08:33:34.632Z,99.90
2019-03-21T08:36:03.068Z,99.90
2019-03-21T08:38:31.543Z,99.90
2019-03-21T08:40:59.974Z,99.90
2019-03-21T08:43:28.412Z,99.90
2019-03-21T08:45:57.288Z,99.90
2019-03-21T08:48:25.714Z,99.90
2019-03-21T08:50:54.140Z,99.90
2019-03-21T08:53:22.602Z,99.90
2019-03-21T08:55:51.030Z,99.90
2019-03-21T08:58:19.446Z,99.90
2019-03-21T09:00:47.921Z,99.90
2019-03-21T09:03:16.344Z,99.90
2019-03-21T09:05:44.859Z,99.90
2019-03-21T09:08:13.324Z,99.90
2019-03-21T09:10:41.745Z,99.90
2019-03-21T09:13:10.524Z,99.90
2019-03-21T09:15:39.330Z,99.90
2019-03-21T09:18:07.766Z,99.90
2019-03-21T09:20:36.194Z,99.90
2019-03-21T09:23:04.660Z,99.90
2019-03-21T09:25:33.086Z,99.90
2019-03-21T09:28:02.903Z,99.90
2019-03-21T09:30:31.665Z,99.90
2019-03-21T09:33:00.139Z,99.90
2019-03-21T09:35:28.603Z,99.90
2019-03-21T09:37:57.074Z,99.90
2019-03-21T09:40:25.813Z,99.90
2019-03-21T09:42:54.246Z,99.90
2019-03-21T09:45:22.715Z,99.90
2019-03-21T09:47:51.147Z,99.90
2019-03-21T09:50:28.760Z,99.90
2019-03-21T09:52:57.258Z,99.90
2019-03-21T09:55:25.754Z,99.90
2019-03-21T09:57:54.234Z,99.90
2019-03-21T10:00:33.832Z,99.90
2019-03-21T10:03:02.580Z,99.90
2019-03-21T10:05:31.035Z,99.90
2019-03-21T10:07:59.769Z,99.90
2019-03-21T10:10:32.734Z,99.90
2019-03-21T10:13:01.306Z,99.90
2019-03-21T10:15:29.738Z,99.90
2019-03-21T10:17:58.336Z,99.90
2019-03-21T10:20:26.782Z,99.90
2019-03-21T10:22:55.278Z,99.90
2019-03-21T10:25:26.385Z,99.90
2019-03-21T10:27:53.896Z,99.90
2019-03-21T10:30:41.582Z,99.90
2019-03-21T10:33:16.203Z,99.90
2019-03-21T10:35:44.768Z,99.90
2019-03-21T10:38:13.298Z,99.90
2019-03-21T10:40:42.005Z,99.90
2019-03-21T10:43:10.820Z,99.90
2019-03-21T10:45:39.698Z,99.90
2019-03-21T10:48:08.126Z,99.90
2019-03-21T10:50:38.198Z,99.90
2019-03-21T10:53:07.697Z,99.90
2019-03-21T10:55:36.271Z,99.90
2019-03-21T10:58:05.734Z,99.90
2019-03-21T11:00:34.349Z,99.90
2019-03-21T11:03:02.848Z,99.90
2019-03-21T11:05:31.631Z,99.90
2019-03-21T11:08:00.160Z,99.90
2019-03-21T11:10:28.588Z,99.90
2019-03-21T11:12:57.021Z,99.90
2019-03-21T11:15:25.489Z,99.90
2019-03-21T11:17:55.051Z,99.90
2019-03-21T11:20:31.442Z,99.90
2019-03-21T11:22:59.880Z,99.90
2019-03-21T11:25:28.393Z,99.90
2019-03-21T11:27:57.055Z,99.90
2019-03-21T11:30:34.603Z,99.90
2019-03-21T11:33:03.809Z,99.90
2019-03-21T11:35:32.685Z,99.90
2019-03-21T11:38:01.300Z,99.90
2019-03-21T11:40:29.788Z,99.90
2019-03-21T11:45:26.687Z,99.20
2019-03-21T11:47:55.232Z,98.00
2019-03-21T11:50:23.805Z,98.20
2019-03-21T11:52:52.268Z,98.20
2019-03-21T11:55:20.875Z,97.90
2019-03-21T11:57:49.658Z,97.70
2019-03-21T12:00:18.394Z,94.90
2019-03-21T12:02:46.938Z,95.50
2019-03-21T12:05:15.391Z,95.40
2019-03-21T12:08:06.770Z,92.30
2019-03-21T12:10:35.266Z,93.10
2019-03-21T12:13:04.117Z,93.20
2019-03-21T12:15:32.549Z,93.10
2019-03-21T12:18:01.015Z,92.70
2019-03-21T12:20:30.991Z,93.50
2019-03-21T12:22:59.493Z,93.10
2019-03-21T12:25:28.193Z,90.10
2019-03-21T12:27:56.760Z,90.20
2019-03-21T12:30:35.915Z,90.70
2019-03-21T12:33:05.200Z,89.60
2019-03-21T12:35:33.633Z,85.60
2019-03-21T12:38:02.091Z,88.40
2019-03-21T12:40:30.584Z,86.50
2019-03-21T12:42:59.085Z,85.80
2019-03-21T12:45:27.846Z,87.70
2019-03-21T12:47:56.278Z,82.80
2019-03-21T12:50:24.726Z,84.00
2019-03-21T12:52:53.191Z,83.40
2019-03-21T12:55:21.625Z,84.50
2019-03-21T12:57:50.070Z,81.10
2019-03-21T13:00:21.624Z,79.30
2019-03-21T13:02:50.054Z,80.50
2019-03-21T13:05:31.787Z,77.80
2019-03-21T13:08:00.241Z,78.90
2019-03-21T13:10:28.671Z,77.60
2019-03-21T13:12:57.335Z,76.60
2019-03-21T13:15:30.148Z,80.20
2019-03-21T13:17:56.351Z,78.20
2019-03-21T13:20:24.820Z,77.00
2019-03-21T13:22:53.763Z,78.10
2019-03-21T13:25:22.529Z,83.30
2019-03-21T13:27:51.057Z,78.70
2019-03-21T13:30:20.556Z,77.80
2019-03-21T13:32:48.986Z,78.30
2019-03-21T13:35:17.801Z,78.40
2019-03-21T13:37:46.230Z,81.10
2019-03-21T13:40:15.982Z,79.40
2019-03-21T13:42:44.448Z,80.70
2019-03-21T13:45:13.580Z,81.10
2019-03-21T13:47:42.021Z,79.40
2019-03-21T13:50:11.631Z,79.00
2019-03-21T13:52:40.075Z,80.30
2019-03-21T13:55:10.153Z,75.20
2019-03-21T13:57:38.627Z,78.50
2019-03-21T14:00:12.828Z,79.60
2019-03-21T14:02:41.262Z,81.00
2019-03-21T14:05:09.874Z,80.50
2019-03-21T14:07:38.346Z,79.50
2019-03-21T14:10:09.491Z,76.70
2019-03-21T14:12:38.118Z,77.60
2019-03-21T14:15:08.700Z,75.60
2019-03-21T14:17:37.202Z,74.00
2019-03-21T14:20:10.310Z,67.10
2019-03-21T14:22:38.743Z,66.10
2019-03-21T14:25:07.462Z,64.30
2019-03-21T14:27:35.903Z,61.70
2019-03-21T14:30:06.702Z,58.00
2019-03-21T14:32:35.202Z,59.10
2019-03-21T14:35:05.375Z,59.50
2019-03-21T14:37:34.103Z,55.60
2019-03-21T14:40:02.993Z,57.50
2019-03-21T14:42:31.530Z,57.20
2019-03-21T14:45:00.016Z,52.80
2019-03-21T14:47:36.166Z,51.10
2019-03-21T14:49:58.749Z,49.50
2019-03-21T14:52:27.199Z,51.60
2019-03-21T14:54:55.703Z,51.90
2019-03-21T14:57:24.186Z,50.50
2019-03-21T14:59:52.632Z,49.60
2019-03-21T15:02:21.210Z,50.20
2019-03-21T15:04:50.019Z,48.90
2019-03-21T15:07:18.814Z,52.20
2019-03-21T15:09:47.363Z,51.10
2019-03-21T15:12:15.991Z,49.60
2019-03-21T15:14:44.419Z,50.20
2019-03-21T15:17:12.854Z,48.70
2019-03-21T15:19:41.320Z,48.40
2019-03-21T15:22:09.753Z,46.10
2019-03-21T15:24:38.187Z,46.80
2019-03-21T15:27:06.705Z,46.80
2019-03-21T15:29:35.491Z,46.60
2019-03-21T15:32:04.395Z,47.60
2019-03-21T15:34:32.956Z,46.30
2019-03-21T15:37:01.396Z,46.60
2019-03-21T15:39:30.103Z,48.90
2019-03-21T15:41:59.026Z,47.70
2019-03-21T15:44:27.511Z,49.20
2019-03-21T15:46:56.301Z,44.60
2019-03-21T15:49:24.822Z,45.60
2019-03-21T15:51:53.255Z,45.70
2019-03-21T15:54:21.689Z,47.10
2019-03-21T15:56:50.155Z,46.20
2019-03-21T15:59:18.642Z,47.00
2019-03-21T16:01:47.067Z,47.90
2019-03-21T16:04:15.525Z,46.90
2019-03-21T16:06:43.969Z,47.30
2019-03-21T16:09:12.415Z,45.90
2019-03-21T16:11:40.926Z,47.30
2019-03-21T16:14:09.359Z,49.70
2019-03-21T16:16:37.807Z,51.50
2019-03-21T16:19:06.562Z,52.70
2019-03-21T16:21:35.293Z,52.90
2019-03-21T16:24:05.310Z,51.60
2019-03-21T16:26:36.642Z,55.50
2019-03-21T16:29:04.806Z,54.40
2019-03-21T16:31:33.233Z,53.80
2019-03-21T16:34:02.129Z,54.40
2019-03-21T16:36:30.908Z,53.40
2019-03-21T16:38:59.349Z,54.80
2019-03-21T16:41:27.892Z,54.30
2019-03-21T16:43:56.332Z,54.50
2019-03-21T16:46:24.750Z,55.30
2019-03-21T16:48:53.225Z,56.30
2019-03-21T16:51:21.649Z,55.80
2019-03-21T16:53:50.498Z,55.60
2019-03-21T16:56:18.974Z,58.70
2019-03-21T16:58:47.667Z,57.90
2019-03-21T17:01:16.105Z,58.90
2019-03-21T17:03:44.591Z,57.80
2019-03-21T17:06:13.028Z,59.10
2019-03-21T17:08:41.495Z,61.60
2019-03-21T17:11:10.107Z,60.00
2019-03-21T17:13:38.613Z,59.60
2019-03-21T17:16:07.130Z,60.90
2019-03-21T17:18:35.626Z,62.10
2019-03-21T17:21:04.187Z,62.30
2019-03-21T17:23:32.948Z,63.50
2019-03-21T17:26:01.525Z,62.50
2019-03-21T17:28:29.965Z,64.30
2019-03-21T17:30:58.403Z,64.40
2019-03-21T17:33:27.435Z,65.30
2019-03-21T17:35:55.872Z,66.30
2019-03-21T17:38:24.313Z,66.20
2019-03-21T17:40:52.903Z,68.10
2019-03-21T17:43:21.336Z,68.80
2019-03-21T17:45:50.234Z,74.40
2019-03-21T17:48:18.695Z,78.40
2019-03-21T17:50:47.132Z,77.90
2019-03-21T17:53:15.646Z,82.50
2019-03-21T17:55:44.129Z,82.30
2019-03-21T17:58:12.564Z,82.80
2019-03-21T18:00:41.363Z,84.70
2019-03-21T18:03:10.074Z,85.40
2019-03-21T18:05:38.510Z,87.80
2019-03-21T18:08:06.942Z,88.40
2019-03-21T18:10:35.776Z,89.30
2019-03-21T18:13:04.644Z,90.20
2019-03-21T18:15:33.152Z,91.50
2019-03-21T18:18:03.598Z,89.70
2019-03-21T18:20:32.118Z,85.70
2019-03-21T18:23:00.690Z,86.90
2019-03-21T18:25:29.171Z,90.50
2019-03-21T18:27:57.682Z,91.90
2019-03-21T18:30:26.179Z,93.60
2019-03-21T18:32:54.638Z,93.30
2019-03-21T18:35:23.143Z,93.50
2019-03-21T18:37:51.584Z,95.10
2019-03-21T18:40:20.032Z,96.50
2019-03-21T18:42:48.465Z,97.00
2019-03-21T18:45:17.043Z,97.00
2019-03-21T18:47:45.551Z,96.50
2019-03-21T18:50:15.563Z,94.90
2019-03-21T18:52:44.009Z,95.60
2019-03-21T18:55:12.738Z,94.10
2019-03-21T18:57:41.170Z,93.40
2019-03-21T19:00:20.233Z,91.60
2019-03-21T19:02:48.832Z,91.10
2019-03-21T19:05:17.332Z,92.80
2019-03-21T19:07:45.809Z,93.90
2019-03-21T19:10:14.987Z,94.10
2019-03-21T19:12:43.589Z,94.10
2019-03-21T19:15:14.060Z,95.70
2019-03-21T19:17:42.484Z,95.70
2019-03-21T19:20:16.919Z,95.90
2019-03-21T19:22:45.444Z,98.00
2019-03-21T19:25:19.107Z,99.70
2019-03-21T19:27:45.045Z,99.90
2019-03-21T19:30:19.131Z,99.90
2019-03-21T19:32:47.767Z,99.90
2019-03-21T19:35:17.444Z,99.90
2019-03-21T19:37:45.894Z,99.90
2019-03-21T19:40:18.677Z,99.90
2019-03-21T19:42:47.111Z,99.90
2019-03-21T19:45:18.820Z,99.90
2019-03-21T19:47:47.467Z,99.90
2019-03-21T19:50:22.087Z,99.90
2019-03-21T19:52:50.547Z,99.90
2019-03-21T19:55:30.326Z,99.90
2019-03-21T19:57:49.394Z,99.90
2019-03-21T20:00:22.768Z,99.90
2019-03-21T20:02:51.447Z,99.90
2019-03-21T20:05:19.966Z,99.90
2019-03-21T20:07:48.458Z,99.90
2019-03-21T20:10:19.044Z,99.90
2019-03-21T20:12:47.481Z,99.90
2019-03-21T20:15:19.382Z,99.90
2019-03-21T20:17:47.951Z,99.90
2019-03-21T20:20:19.636Z,99.90
2019-03-21T20:22:48.525Z,99.90
2019-03-21T20:25:17.022Z,99.90
2019-03-21T20:27:45.459Z,99.90
2019-03-21T20:30:20.419Z,99.90
2019-03-21T20:32:49.282Z,99.90
2019-03-21T20:35:17.869Z,99.90
2019-03-21T20:37:46.347Z,99.90
2019-03-21T20:40:18.214Z,99.90
2019-03-21T20:42:46.728Z,99.90
2019-03-21T20:45:19.183Z,99.90
2019-03-21T20:47:48.011Z,99.90
2019-03-21T20:50:16.774Z,99.90
2019-03-21T20:52:45.281Z,99.90
2019-03-21T20:55:14.465Z,99.90
2019-03-21T20:57:43.037Z,99.90
2019-03-21T21:00:24.780Z,99.90
2019-03-21T21:02:53.983Z,99.90
2019-03-21T21:05:23.313Z,99.90
2019-03-21T21:07:52.041Z,99.90
2019-03-21T21:10:20.475Z,99.90
2019-03-21T21:12:48.912Z,99.90
2019-03-21T21:15:18.062Z,99.90
2019-03-21T21:17:46.684Z,99.90
2019-03-21T21:20:19.467Z,99.90
2019-03-21T21:22:48.123Z,99.90
2019-03-21T21:25:16.703Z,99.90
2019-03-21T21:27:49.716Z,99.90
2019-03-21T21:30:20.190Z,99.90
2019-03-21T21:32:48.898Z,99.90
2019-03-21T21:35:17.567Z,99.90
2019-03-21T21:37:46.155Z,99.90
2019-03-21T21:40:16.429Z,99.90
2019-03-21T21:42:44.952Z,99.90
2019-03-21T21:45:15.954Z,99.90
2019-03-21T21:47:44.884Z,99.90
2019-03-21T21:50:14.654Z,99.90
2019-03-21T21:52:43.197Z,99.90
2019-03-21T21:55:12.296Z,99.90
2019-03-21T21:57:40.735Z,99.90
2019-03-21T22:00:15.140Z,99.90
2019-03-21T22:02:43.747Z,99.90
2019-03-21T22:05:12.423Z,99.90
2019-03-21T22:07:40.896Z,99.90
2019-03-21T22:10:09.850Z,99.90
2019-03-21T22:12:38.416Z,99.90
2019-03-21T22:15:12.604Z,99.90
2019-03-21T22:17:41.209Z,99.90
2019-03-21T22:20:11.944Z,99.90
2019-03-21T22:22:40.506Z,99.90
2019-03-21T22:25:09.779Z,99.90
2019-03-21T22:27:38.287Z,99.90
2019-03-21T22:30:20.591Z,99.90
2019-03-21T22:32:49.147Z,99.90
2019-03-21T22:35:17.759Z,99.90
2019-03-21T22:37:46.903Z,99.90
2019-03-21T22:40:19.195Z,99.90
2019-03-21T22:42:47.798Z,99.90
2019-03-21T22:45:17.495Z,99.90
2019-03-21T22:47:46.084Z,99.90
2019-03-21T22:50:16.055Z,99.90
2019-03-21T22:52:45.535Z,99.90
2019-03-21T22:55:14.516Z,99.90
2019-03-21T22:57:43.589Z,99.90
2019-03-21T23:00:22.441Z,99.90
2019-03-21T23:02:51.184Z,99.90
2019-03-21T23:05:20.150Z,99.90
2019-03-21T23:07:48.722Z,99.90
2019-03-21T23:10:17.359Z,99.90
2019-03-21T23:12:45.866Z,99.90
2019-03-21T23:15:15.647Z,99.90
2019-03-21T23:17:45.491Z,99.90
2019-03-21T23:20:17.070Z,99.90
2019-03-21T23:22:45.698Z,99.90
2019-03-21T23:25:16.620Z,99.90
2019-03-21T23:27:45.125Z,99.90
2019-03-21T23:30:16.215Z,99.90
2019-03-21T23:32:45.088Z,99.90
2019-03-21T23:35:14.362Z,99.90
2019-03-21T23:37:43.203Z,99.90
2019-03-21T23:40:16.396Z,99.90
2019-03-21T23:42:45.064Z,99.90
2019-03-21T23:45:14.585Z,99.90
2019-03-21T23:47:43.258Z,99.90
2019-03-21T23:50:15.822Z,99.90
2019-03-21T23:52:44.596Z,99.90
2019-03-21T23:55:14.106Z,99.90
2019-03-21T23:57:43.243Z,99.90
